Ovalo, Texas
Current Conditions -  °F | °C
As of 9:58 AM on Tuesday 21 Oct 2014 (Local Time) from KDYS Reporting Station
Clear Clear  
Wind Chill: 70°   Ceiling: Unl
Heat Index: 70°   Visibility: 10mi
Dew Point: 58°   Wind: 5mph
Humidity: 65%   Direction: 190°S
Pressure: 30.12"   Gusts: NA
Location:  32.17°N, 99.81°W
Report Text: KDYS 211458Z AUTO 19004KT 10SM CLR 21/14 A3012 RMK AO2 SLP169 T02090142 52013
Loading
Personal Weather Stations






























Interactive Weather Map
Tropical Storm Tracking
New forecast layout! Learn more

10-Day Weather Forecast

Advertisements
Track Severe Weather on mobile